createdAt,value
2018-11-02T00:01:21.732Z,100449.98
2018-11-02T00:03:50.435Z,100458.42
2018-11-02T00:06:19.089Z,100449.42
2018-11-02T00:08:47.844Z,100456.12
2018-11-02T00:11:16.671Z,100459.22
2018-11-02T00:13:45.394Z,100463.55
2018-11-02T00:16:14.296Z,100464.87
2018-11-02T00:18:43.015Z,100460.20
2018-11-02T00:21:11.684Z,100465.75
2018-11-02T00:23:40.484Z,100463.07
2018-11-02T00:26:09.152Z,100472.53
2018-11-02T00:28:38.763Z,100471.91
2018-11-02T00:31:07.402Z,100484.67
2018-11-02T00:33:36.121Z,100487.07
2018-11-02T00:36:05.063Z,100487.02
2018-11-02T00:38:33.772Z,100493.43
2018-11-02T00:41:02.531Z,100491.34
2018-11-02T00:43:31.228Z,100495.37
2018-11-02T00:45:59.937Z,100500.73
2018-11-02T00:48:28.552Z,100499.98
2018-11-02T00:50:57.305Z,100504.01
2018-11-02T00:53:26.096Z,100514.58
2018-11-02T00:55:54.770Z,100516.75
2018-11-02T00:58:23.492Z,100517.34
2018-11-02T01:00:52.053Z,100516.33
2018-11-02T01:03:20.838Z,100519.41
2018-11-02T01:05:49.740Z,100520.60
2018-11-02T01:08:18.372Z,100525.36
2018-11-02T01:10:47.478Z,100524.02
2018-11-02T01:13:16.306Z,100530.49
2018-11-02T01:15:45.550Z,100520.00
2018-11-02T01:18:15.285Z,100524.94
2018-11-02T01:20:44.433Z,100516.18
2018-11-02T01:23:13.042Z,100523.42
2018-11-02T01:25:44.637Z,100519.09
2018-11-02T01:28:13.338Z,100517.89
2018-11-02T01:30:42.164Z,100523.50
2018-11-02T01:33:11.061Z,100526.68
2018-11-02T01:35:39.905Z,100524.20
2018-11-02T01:38:08.823Z,100523.91
2018-11-02T01:40:37.738Z,100524.87
2018-11-02T01:43:07.427Z,100507.70
2018-11-02T01:45:36.119Z,100497.30
2018-11-02T01:48:04.992Z,100493.20
2018-11-02T01:50:33.671Z,100489.00
2018-11-02T01:53:02.308Z,100499.34
2018-11-02T01:55:31.093Z,100509.56
2018-11-02T01:57:59.887Z,100518.92
2018-11-02T02:00:28.559Z,100526.13
2018-11-02T02:02:57.291Z,100539.95
2018-11-02T02:05:25.901Z,100540.93
2018-11-02T02:07:54.621Z,100548.91
2018-11-02T02:10:23.380Z,100548.71
2018-11-02T02:12:51.994Z,100552.29
2018-11-02T02:15:20.668Z,100553.89
2018-11-02T02:17:49.247Z,100560.45
2018-11-02T02:20:17.876Z,100563.78
2018-11-02T02:22:46.559Z,100560.33
2018-11-02T02:25:15.255Z,100559.88
2018-11-02T02:27:51.483Z,100561.30
2018-11-02T02:30:20.756Z,100563.47
2018-11-02T02:32:49.323Z,100561.88
2018-11-02T02:35:18.103Z,100557.63
2018-11-02T02:37:46.763Z,100559.06
2018-11-02T02:40:16.148Z,100554.24
2018-11-02T02:42:44.772Z,100563.58
2018-11-02T02:45:13.640Z,100557.27
2018-11-02T02:47:42.284Z,100566.85
2018-11-02T02:50:13.516Z,100572.02
2018-11-02T02:52:43.054Z,100573.81
2018-11-02T02:55:11.723Z,100571.53
2018-11-02T02:57:40.252Z,100572.45
2018-11-02T03:00:11.422Z,100576.23
2018-11-02T03:02:40.160Z,100584.28
2018-11-02T03:05:09.094Z,100594.18
2018-11-02T03:07:37.665Z,100591.22
2018-11-02T03:10:06.858Z,100601.56
2018-11-02T03:12:35.471Z,100605.59
2018-11-02T03:15:04.441Z,100603.65
2018-11-02T03:17:33.072Z,100607.67
2018-11-02T03:20:01.771Z,100606.47
2018-11-02T03:22:30.389Z,100615.59
2018-11-02T03:24:59.080Z,100615.93
2018-11-02T03:27:27.675Z,100627.59
2018-11-02T03:29:56.461Z,100627.48
2018-11-02T03:32:25.097Z,100630.85
2018-11-02T03:34:53.680Z,100640.83
2018-11-02T03:37:22.362Z,100650.91
2018-11-02T03:39:52.189Z,100648.95
2018-11-02T03:42:20.793Z,100647.33
2018-11-02T03:44:49.479Z,100650.33
2018-11-02T03:47:18.177Z,100658.97
2018-11-02T03:49:46.818Z,100658.88
2018-11-02T03:52:15.497Z,100662.70
2018-11-02T03:54:44.179Z,100667.06
2018-11-02T03:57:12.813Z,100664.30
2018-11-02T03:59:41.512Z,100662.22
2018-11-02T04:02:10.126Z,100677.80
2018-11-02T04:04:38.804Z,100673.86
2018-11-02T04:07:07.391Z,100673.55
2018-11-02T04:09:36.164Z,100683.67
2018-11-02T04:12:04.772Z,100687.69
2018-11-02T04:14:33.477Z,100695.59
2018-11-02T04:17:02.247Z,100698.59
2018-11-02T04:19:31.024Z,100697.34
2018-11-02T04:21:59.639Z,100710.98
2018-11-02T04:24:28.405Z,100713.66
2018-11-02T04:26:57.014Z,100715.47
2018-11-02T04:29:25.706Z,100720.41
2018-11-02T04:31:54.531Z,100731.14
2018-11-02T04:34:23.321Z,100734.47
2018-11-02T04:36:52.038Z,100740.77
2018-11-02T04:39:20.719Z,100731.38
2018-11-02T04:41:49.396Z,100742.00
2018-11-02T04:44:18.168Z,100745.11
2018-11-02T04:46:46.843Z,100751.91
2018-11-02T04:49:15.724Z,100752.37
2018-11-02T04:51:44.396Z,100761.56
2018-11-02T04:54:12.994Z,100770.03
2018-11-02T04:56:41.823Z,100767.38
2018-11-02T04:59:10.797Z,100775.52
2018-11-02T05:01:39.643Z,100780.21
2018-11-02T05:04:08.324Z,100785.18
2018-11-02T05:06:36.980Z,100805.00
2018-11-02T05:09:07.872Z,100814.98
2018-11-02T05:11:36.832Z,100819.20
2018-11-02T05:14:05.600Z,100827.24
2018-11-02T05:16:34.307Z,100833.48
2018-11-02T05:19:03.050Z,100842.75
2018-11-02T05:21:31.855Z,100847.48
2018-11-02T05:24:00.774Z,100851.30
2018-11-02T05:26:29.436Z,100847.17
2018-11-02T05:28:58.050Z,100857.05
2018-11-02T05:31:26.776Z,100855.32
2018-11-02T05:33:55.460Z,100866.64
2018-11-02T05:36:24.175Z,100871.56
2018-11-02T05:38:52.829Z,100877.35
2018-11-02T05:41:21.523Z,100881.55
2018-11-02T05:43:50.168Z,100890.52
2018-11-02T05:46:18.930Z,100896.78
2018-11-02T05:48:47.646Z,100910.70
2018-11-02T05:51:16.387Z,100913.56
2018-11-02T05:53:44.954Z,100920.88
2018-11-02T05:56:13.687Z,100922.54
2018-11-02T05:58:42.216Z,100933.97
2018-11-02T06:01:10.978Z,100940.73
2018-11-02T06:03:39.773Z,100943.95
2018-11-02T06:06:08.478Z,100950.92
2018-11-02T06:08:37.264Z,100957.30
2018-11-02T06:11:06.425Z,100964.59
2018-11-02T06:13:35.186Z,100971.18
2018-11-02T06:16:03.970Z,100980.98
2018-11-02T06:18:32.734Z,100981.04
2018-11-02T06:21:01.323Z,100988.35
2018-11-02T06:23:30.144Z,100994.42
2018-11-02T06:25:58.785Z,100996.59
2018-11-02T06:28:27.477Z,101005.56
2018-11-02T06:30:56.204Z,101010.71
2018-11-02T06:33:24.957Z,101018.56
2018-11-02T06:35:53.648Z,101028.73
2018-11-02T06:38:22.322Z,101033.91
2018-11-02T06:40:51.014Z,101036.76
2018-11-02T06:43:19.804Z,101043.78
2018-11-02T06:45:48.700Z,101049.34
2018-11-02T06:48:17.403Z,101054.04
2018-11-02T06:50:46.140Z,101061.66
2018-11-02T06:53:14.810Z,101065.58
2018-11-02T06:55:43.556Z,101069.53
2018-11-02T06:58:12.178Z,101073.31
2018-11-02T07:00:42.943Z,101079.80
2018-11-02T07:03:11.645Z,101088.45
2018-11-02T07:05:40.430Z,101100.47
2018-11-02T07:08:09.281Z,101094.37
2018-11-02T07:10:37.705Z,101107.98
2018-11-02T07:13:06.398Z,101118.45
2018-11-02T07:15:35.044Z,101123.22
2018-11-02T07:18:03.778Z,101121.37
2018-11-02T07:20:32.583Z,101137.81
2018-11-02T07:23:01.430Z,101148.19
2018-11-02T07:25:30.060Z,101157.17
2018-11-02T07:27:58.784Z,101155.92
2018-11-02T07:30:32.015Z,101164.58
2018-11-02T07:33:00.807Z,101162.86
2018-11-02T07:35:29.372Z,101164.02
2018-11-02T07:37:58.290Z,101171.25
2018-11-02T07:40:26.982Z,101171.78
2018-11-02T07:42:55.832Z,101170.06
2018-11-02T07:45:24.526Z,101181.75
2018-11-02T07:47:53.262Z,101172.30
2018-11-02T07:50:22.093Z,101175.80
2018-11-02T07:52:50.908Z,101195.84
2018-11-02T07:55:19.560Z,101202.53
2018-11-02T07:57:48.368Z,101203.28
2018-11-02T08:00:17.955Z,101207.45
2018-11-02T08:02:47.523Z,101214.60
2018-11-02T08:05:16.813Z,101219.75
2018-11-02T08:07:45.507Z,101218.83
2018-11-02T08:10:14.257Z,101224.06
2018-11-02T08:12:42.959Z,101229.66
2018-11-02T08:15:12.668Z,101231.06
2018-11-02T08:17:42.246Z,101228.95
2018-11-02T08:20:12.326Z,101236.81
2018-11-02T08:22:41.147Z,101238.38
2018-11-02T08:25:10.885Z,101239.14
2018-11-02T08:27:39.737Z,101232.77
2018-11-02T08:30:09.267Z,101245.41
2018-11-02T08:32:38.075Z,101244.97
2018-11-02T08:35:08.796Z,101257.16
2018-11-02T08:37:37.471Z,101250.50
2018-11-02T08:40:07.133Z,101255.21
2018-11-02T08:42:35.839Z,101259.21
2018-11-02T08:45:04.576Z,101256.22
2018-11-02T08:47:33.280Z,101267.21
2018-11-02T08:50:02.012Z,101268.83
2018-11-02T08:52:30.905Z,101270.00
2018-11-02T08:54:59.507Z,101257.07
2018-11-02T08:57:28.535Z,101261.09
2018-11-02T08:59:57.354Z,101266.38
2018-11-02T09:02:27.232Z,101268.45
2018-11-02T09:04:56.089Z,101277.60
2018-11-02T09:07:24.819Z,101285.72
2018-11-02T09:09:53.669Z,101295.72
2018-11-02T09:12:23.441Z,101297.56
2018-11-02T09:14:52.115Z,101299.55
2018-11-02T09:17:20.787Z,101313.00
2018-11-02T09:19:49.452Z,101314.58
2018-11-02T09:22:37.040Z,101312.47
2018-11-02T09:25:07.136Z,101308.30
2018-11-02T09:27:36.600Z,101313.72
2018-11-02T09:30:08.036Z,101321.66
2018-11-02T09:32:44.547Z,101315.70
2018-11-02T09:35:14.024Z,101329.45
2018-11-02T09:37:43.402Z,101336.25
2018-11-02T09:40:12.712Z,101340.97
2018-11-02T09:42:41.595Z,101338.41
2018-11-02T09:45:13.127Z,101343.99
2018-11-02T09:47:42.340Z,101349.77
2018-11-02T09:50:11.669Z,101349.09
2018-11-02T09:52:43.973Z,101343.80
2018-11-02T09:55:14.973Z,101350.50
2018-11-02T09:57:44.841Z,101356.06
2018-11-02T10:00:14.469Z,101363.92
2018-11-02T10:03:00.060Z,101366.03
2018-11-02T10:05:28.811Z,101375.83
2018-11-02T10:07:57.659Z,101382.27
2018-11-02T10:10:26.382Z,101392.27
2018-11-02T10:13:02.411Z,101399.77
2018-11-02T10:15:31.092Z,101406.92
2018-11-02T10:17:59.819Z,101407.43
2018-11-02T10:20:28.534Z,101405.45
2018-11-02T10:23:00.692Z,101417.91
2018-11-02T10:25:29.519Z,101413.72
2018-11-02T10:27:58.684Z,101415.83
2018-11-02T10:30:27.647Z,101417.08
2018-11-02T10:32:58.375Z,101416.73
2018-11-02T10:35:27.329Z,101418.20
2018-11-02T10:37:57.461Z,101427.60
2018-11-02T10:40:26.305Z,101427.73
2018-11-02T10:43:04.927Z,101430.08
2018-11-02T10:45:35.507Z,101433.55
2018-11-02T10:48:05.188Z,101430.66
2018-11-02T10:50:33.944Z,101435.22
2018-11-02T10:53:03.897Z,101443.25
2018-11-02T10:55:32.586Z,101450.00
2018-11-02T10:58:01.244Z,101459.08
2018-11-02T11:00:35.101Z,101459.55
2018-11-02T11:03:07.667Z,101467.09
2018-11-02T11:05:36.450Z,101469.73
2018-11-02T11:08:05.078Z,101479.12
2018-11-02T11:10:33.716Z,101486.15
2018-11-02T11:13:02.665Z,101484.10
2018-11-02T11:15:31.235Z,101485.06
2018-11-02T11:18:00.078Z,101483.64
2018-11-02T11:20:28.788Z,101479.83
2018-11-02T11:22:57.443Z,101478.29
2018-11-02T11:25:26.184Z,101487.75
2018-11-02T11:27:54.992Z,101497.13
2018-11-02T11:30:23.761Z,101490.34
2018-11-02T11:32:52.854Z,101500.19
2018-11-02T11:35:21.586Z,101501.28
2018-11-02T11:37:50.277Z,101507.45
2018-11-02T11:40:21.139Z,101507.70
2018-11-02T11:42:50.456Z,101510.75
2018-11-02T11:45:19.918Z,101511.72
2018-11-02T11:47:48.668Z,101514.98
2018-11-02T11:50:19.547Z,101513.69
2018-11-02T11:52:49.714Z,101508.39
2018-11-02T11:55:18.536Z,101506.70
2018-11-02T11:57:47.250Z,101506.94
2018-11-02T12:00:18.055Z,101507.98
2018-11-02T12:02:48.754Z,101513.50
2018-11-02T12:05:19.675Z,101516.17
2018-11-02T12:07:48.429Z,101513.41
2018-11-02T12:10:21.415Z,101516.18
2018-11-02T12:12:49.983Z,101522.66
2018-11-02T12:15:19.904Z,101523.22
2018-11-02T12:17:49.118Z,101521.95
2018-11-02T12:20:19.357Z,101532.70
2018-11-02T12:23:01.815Z,101531.77
2018-11-02T12:25:30.516Z,101536.25
2018-11-02T12:27:59.180Z,101533.69
2018-11-02T12:30:27.812Z,101531.12
2018-11-02T12:33:05.056Z,101538.97
2018-11-02T12:35:38.190Z,101533.21
2018-11-02T12:38:09.429Z,101546.48
2018-11-02T12:40:38.947Z,101543.61
2018-11-02T12:43:08.784Z,101542.55
2018-11-02T12:45:37.765Z,101549.48
2018-11-02T12:48:06.512Z,101548.30
2018-11-02T12:50:35.098Z,101545.08
2018-11-02T12:53:06.003Z,101545.47
2018-11-02T12:55:34.596Z,101543.48
2018-11-02T12:58:03.262Z,101549.25
2018-11-02T13:00:31.947Z,101549.49
2018-11-02T13:03:08.034Z,101548.91
2018-11-02T13:05:36.712Z,101555.74
2018-11-02T13:08:05.570Z,101560.09
2018-11-02T13:10:35.526Z,101564.92
2018-11-02T13:13:16.943Z,101565.01
2018-11-02T13:15:45.629Z,101570.40
2018-11-02T13:18:15.583Z,101567.80
2018-11-02T13:20:44.124Z,101568.42
2018-11-02T13:23:20.216Z,101571.27
2018-11-02T13:25:48.906Z,101581.25
2018-11-02T13:28:17.503Z,101587.58
2018-11-02T13:30:46.289Z,101583.19
2018-11-02T13:33:15.002Z,101584.87
2018-11-02T13:35:43.695Z,101581.89
2018-11-02T13:38:12.371Z,101584.30
2018-11-02T13:40:41.256Z,101585.56
2018-11-02T13:43:18.157Z,101591.83
2018-11-02T13:45:46.710Z,101603.12
2018-11-02T13:48:15.619Z,101595.17
2018-11-02T13:50:44.340Z,101603.95
2018-11-02T13:53:13.136Z,101604.27
2018-11-02T13:55:41.766Z,101604.84
2018-11-02T13:58:10.537Z,101604.91
2018-11-02T14:00:39.215Z,101611.59
2018-11-02T14:03:15.495Z,101613.45
2018-11-02T14:05:44.236Z,101622.98
2018-11-02T14:08:12.904Z,101628.11
2018-11-02T14:10:41.576Z,101631.91
2018-11-02T14:13:11.308Z,101633.91
2018-11-02T14:15:40.057Z,101640.95
2018-11-02T14:18:08.682Z,101646.23
2018-11-02T14:20:37.324Z,101640.16
2018-11-02T14:23:13.724Z,101652.85
2018-11-02T14:25:42.382Z,101663.72
2018-11-02T14:28:11.146Z,101668.84
2018-11-02T14:30:39.895Z,101675.56
2018-11-02T14:33:15.887Z,101672.66
2018-11-02T14:35:44.636Z,101676.96
2018-11-02T14:38:13.264Z,101674.15
2018-11-02T14:40:42.111Z,101681.73
2018-11-02T14:43:10.811Z,101682.50
2018-11-02T14:45:39.726Z,101695.20
2018-11-02T14:48:09.254Z,101688.13
2018-11-02T14:50:38.024Z,101694.72
2018-11-02T14:53:20.060Z,101696.10
2018-11-02T14:55:48.675Z,101696.44
2018-11-02T14:58:17.266Z,101700.06
2018-11-02T15:00:45.948Z,101706.25
2018-11-02T15:03:22.426Z,101717.20
2018-11-02T15:05:51.143Z,101724.53
2018-11-02T15:08:19.981Z,101731.13
2018-11-02T15:10:48.867Z,101737.29
2018-11-02T15:13:25.368Z,101741.45
2018-11-02T15:15:54.052Z,101750.41
2018-11-02T15:18:22.648Z,101750.95
2018-11-02T15:20:51.383Z,101752.90
2018-11-02T15:23:33.750Z,101760.70
2018-11-02T15:26:02.455Z,101758.73
2018-11-02T15:28:31.073Z,101761.06
2018-11-02T15:30:59.720Z,101764.15
2018-11-02T15:33:28.429Z,101768.91
2018-11-02T15:35:57.190Z,101770.35
2018-11-02T15:38:25.898Z,101775.94
2018-11-02T15:40:54.522Z,101774.34
2018-11-02T15:43:23.162Z,101775.33
2018-11-02T15:45:51.871Z,101765.80
2018-11-02T15:48:20.624Z,101767.26
2018-11-02T15:50:49.358Z,101765.70
2018-11-02T15:53:18.082Z,101769.48
2018-11-02T15:55:46.672Z,101769.20
2018-11-02T15:58:15.472Z,101774.05
2018-11-02T16:00:44.283Z,101780.59
2018-11-02T16:03:13.045Z,101780.23
2018-11-02T16:05:41.770Z,101797.38
2018-11-02T16:08:10.373Z,101791.96
2018-11-02T16:10:39.081Z,101795.75
2018-11-02T16:13:07.769Z,101799.34
2018-11-02T16:15:36.842Z,101805.60
2018-11-02T16:18:05.647Z,101804.34
2018-11-02T16:20:34.423Z,101813.73
2018-11-02T16:23:03.043Z,101819.16
2018-11-02T16:25:31.756Z,101816.30
2018-11-02T16:28:00.444Z,101814.24
2018-11-02T16:30:29.410Z,101814.83
2018-11-02T16:32:58.136Z,101809.51
2018-11-02T16:35:26.777Z,101807.69
2018-11-02T16:37:55.463Z,101804.84
2018-11-02T16:40:24.094Z,101801.16
2018-11-02T16:42:52.796Z,101811.45
2018-11-02T16:45:21.479Z,101818.72
2018-11-02T16:47:50.257Z,101818.28
2018-11-02T16:50:19.109Z,101828.33
2018-11-02T16:52:47.699Z,101835.06
2018-11-02T16:55:16.486Z,101843.20
2018-11-02T16:57:45.311Z,101846.27
2018-11-02T17:00:16.295Z,101845.62
2018-11-02T17:02:46.151Z,101847.60
2018-11-02T17:05:14.813Z,101855.96
2018-11-02T17:07:43.991Z,101861.98
2018-11-02T17:10:13.778Z,101870.89
2018-11-02T17:12:42.963Z,101869.18
2018-11-02T17:15:12.596Z,101868.50
2018-11-02T17:17:41.274Z,101873.33
2018-11-02T17:20:13.601Z,101878.00
2018-11-02T17:22:42.356Z,101889.12
2018-11-02T17:25:11.877Z,101886.80
2018-11-02T17:27:41.187Z,101898.02
2018-11-02T17:30:13.465Z,101908.44
2018-11-02T17:32:42.101Z,101912.72
2018-11-02T17:35:11.477Z,101914.53
2018-11-02T17:37:40.211Z,101915.13
2018-11-02T17:40:11.193Z,101917.72
2018-11-02T17:42:40.132Z,101924.16
2018-11-02T17:45:09.811Z,101924.88
2018-11-02T17:47:39.583Z,101933.52
2018-11-02T17:50:09.757Z,101934.01
2018-11-02T17:52:38.497Z,101938.19
2018-11-02T17:55:07.096Z,101951.12
2018-11-02T17:57:36.076Z,101949.97
2018-11-02T18:00:05.238Z,101948.75
2018-11-02T18:02:34.031Z,101962.37
2018-11-02T18:05:03.228Z,101957.23
2018-11-02T18:07:31.957Z,101957.61
2018-11-02T18:10:00.586Z,101954.12
2018-11-02T18:12:29.413Z,101955.05
2018-11-02T18:14:58.136Z,101961.27
2018-11-02T18:17:27.136Z,101967.14
2018-11-02T18:19:56.071Z,101967.42
2018-11-02T18:22:25.613Z,101977.84
2018-11-02T18:24:54.455Z,101985.14
2018-11-02T18:27:23.833Z,101986.08
2018-11-02T18:29:52.832Z,101988.36
2018-11-02T18:32:21.832Z,101990.84
2018-11-02T18:34:50.972Z,101991.48
2018-11-02T18:37:19.859Z,102001.61
2018-11-02T18:39:48.823Z,102004.78
2018-11-02T18:42:17.498Z,102009.67
2018-11-02T18:44:46.307Z,102005.92
2018-11-02T18:47:15.326Z,102008.31
2018-11-02T18:49:44.396Z,102013.19
2018-11-02T18:52:13.963Z,102012.49
2018-11-02T18:54:43.084Z,102016.38
2018-11-02T18:57:11.908Z,102026.14
2018-11-02T18:59:40.872Z,102025.17
2018-11-02T19:02:09.939Z,102027.34
2018-11-02T19:04:39.008Z,102029.55
2018-11-02T19:07:08.244Z,102038.36
2018-11-02T19:09:37.461Z,102051.47
2018-11-02T19:12:06.665Z,102052.05
2018-11-02T19:14:35.775Z,102055.58
2018-11-02T19:17:04.947Z,102061.13
2018-11-02T19:19:34.211Z,102064.77
2018-11-02T19:22:03.303Z,102069.84
2018-11-02T19:24:32.465Z,102072.30
2018-11-02T19:27:02.081Z,102077.25
2018-11-02T19:29:31.290Z,102081.06
2018-11-02T19:32:00.865Z,102081.31
2018-11-02T19:34:30.154Z,102083.34
2018-11-02T19:36:59.298Z,102083.59
2018-11-02T19:39:28.565Z,102084.12
2018-11-02T19:41:57.810Z,102082.59
2018-11-02T19:44:27.085Z,102083.45
2018-11-02T19:46:56.388Z,102096.84
2018-11-02T19:49:25.914Z,102095.40
2018-11-02T19:51:54.975Z,102098.05
2018-11-02T19:54:25.086Z,102094.08
2018-11-02T19:56:54.256Z,102103.58
2018-11-02T19:59:23.309Z,102102.41
2018-11-02T20:01:52.112Z,102096.75
2018-11-02T20:04:21.440Z,102093.77
2018-11-02T20:06:50.546Z,102099.55
2018-11-02T20:09:19.496Z,102106.67
2018-11-02T20:11:49.077Z,102109.80
2018-11-02T20:14:18.119Z,102111.45
2018-11-02T20:16:47.091Z,102112.77
2018-11-02T20:19:16.137Z,102118.77
2018-11-02T20:21:44.893Z,102112.27
2018-11-02T20:24:14.042Z,102117.11
2018-11-02T20:26:43.471Z,102118.78
2018-11-02T20:29:12.526Z,102111.69
2018-11-02T20:31:41.222Z,102118.08
2018-11-02T20:34:10.281Z,102119.98
2018-11-02T20:36:39.518Z,102112.66
2018-11-02T20:39:11.107Z,102112.45
2018-11-02T20:41:40.081Z,102117.80
2018-11-02T20:44:08.968Z,102125.89
2018-11-02T20:46:38.001Z,102123.40
2018-11-02T20:49:06.973Z,102117.17
2018-11-02T20:51:36.088Z,102120.91
2018-11-02T20:54:05.262Z,102125.59
2018-11-02T20:56:34.459Z,102130.05
2018-11-02T20:59:03.115Z,102130.30
2018-11-02T21:01:32.208Z,102128.33
2018-11-02T21:04:00.939Z,102132.53
2018-11-02T21:06:30.338Z,102133.61
2018-11-02T21:08:59.262Z,102133.52
2018-11-02T21:11:28.024Z,102133.85
2018-11-02T21:13:56.720Z,102143.62
2018-11-02T21:16:26.482Z,102138.80
2018-11-02T21:18:55.326Z,102143.95
2018-11-02T21:21:24.242Z,102145.52
2018-11-02T21:23:53.183Z,102148.87
2018-11-02T21:26:21.861Z,102154.91
2018-11-02T21:28:50.638Z,102158.87
2018-11-02T21:31:19.192Z,102162.59
2018-11-02T21:33:47.913Z,102166.22
2018-11-02T21:36:16.455Z,102169.23
2018-11-02T21:38:45.245Z,102166.70
2018-11-02T21:41:14.083Z,102169.34
2018-11-02T21:43:42.755Z,102161.52
2018-11-02T21:46:11.452Z,102159.86
2018-11-02T21:48:40.914Z,102166.56
2018-11-02T21:51:09.554Z,102168.02
2018-11-02T21:53:38.413Z,102164.30
2018-11-02T21:56:07.110Z,102165.14
2018-11-02T21:58:35.978Z,102166.45
2018-11-02T22:01:04.891Z,102168.39
2018-11-02T22:03:33.645Z,102172.82
2018-11-02T22:06:02.473Z,102165.63
2018-11-02T22:08:31.146Z,102165.37
2018-11-02T22:10:59.799Z,102169.80
2018-11-02T22:13:28.436Z,102173.53
2018-11-02T22:15:57.272Z,102182.39
2018-11-02T22:18:26.059Z,102177.47
2018-11-02T22:20:54.760Z,102176.03
2018-11-02T22:23:23.359Z,102185.99
2018-11-02T22:25:55.495Z,102190.55
2018-11-02T22:28:24.261Z,102187.92
2018-11-02T22:30:52.933Z,102175.09
2018-11-02T22:33:21.647Z,102177.38
2018-11-02T22:35:50.321Z,102171.38
2018-11-02T22:38:18.949Z,102170.17
2018-11-02T22:40:47.678Z,102170.30
2018-11-02T22:43:16.506Z,102166.81
2018-11-02T22:45:45.232Z,102163.80
2018-11-02T22:48:18.949Z,102169.20
2018-11-02T22:50:47.684Z,102172.22
2018-11-02T22:53:16.323Z,102182.41
2018-11-02T22:55:44.967Z,102178.67
2018-11-02T22:58:13.767Z,102178.31
2018-11-02T23:00:47.668Z,102183.20
2018-11-02T23:03:16.430Z,102188.38
2018-11-02T23:05:45.294Z,102191.73
2018-11-02T23:08:13.797Z,102202.19
2018-11-02T23:10:42.421Z,102202.68
2018-11-02T23:13:11.844Z,102199.58
2018-11-02T23:15:40.425Z,102200.45
2018-11-02T23:18:09.083Z,102197.69
2018-11-02T23:20:37.783Z,102199.02
2018-11-02T23:23:06.610Z,102205.38
2018-11-02T23:25:35.247Z,102204.55
2018-11-02T23:28:04.036Z,102212.12
2018-11-02T23:30:32.796Z,102211.88
2018-11-02T23:33:01.506Z,102210.33
2018-11-02T23:35:30.197Z,102208.16
2018-11-02T23:37:58.874Z,102213.44
2018-11-02T23:40:27.514Z,102215.00
2018-11-02T23:42:56.180Z,102212.01
2018-11-02T23:45:24.879Z,102216.92
2018-11-02T23:48:28.227Z,102215.26
2018-11-02T23:50:56.908Z,102208.17
2018-11-02T23:53:25.723Z,102208.73
2018-11-02T23:55:54.369Z,102212.36
2018-11-02T23:58:23.119Z,102206.23
